sensor_id;sensor_type;location;lat;lon;timestamp;P1;durP1;ratioP1;P2;durP2;ratioP2
3000;SDS011;1510;51.072;6.678;2023-02-21T00:00:08;497.93;;;473.00;;
3000;SDS011;1510;51.072;6.678;2023-02-21T00:02:53;477.97;;;454.97;;
3000;SDS011;1510;51.072;6.678;2023-02-21T00:05:37;474.00;;;451.90;;
3000;SDS011;1510;51.072;6.678;2023-02-21T00:08:22;459.50;;;437.80;;
3000;SDS011;1510;51.072;6.678;2023-02-21T00:11:06;447.93;;;428.07;;
3000;SDS011;1510;51.072;6.678;2023-02-21T00:13:51;457.13;;;435.83;;
3000;SDS011;1510;51.072;6.678;2023-02-21T00:16:35;461.07;;;439.03;;
3000;SDS011;1510;51.072;6.678;2023-02-21T00:19:19;454.07;;;432.77;;
3000;SDS011;1510;51.072;6.678;2023-02-21T00:22:03;439.87;;;418.97;;
3000;SDS011;1510;51.072;6.678;2023-02-21T00:24:47;447.30;;;427.03;;
3000;SDS011;1510;51.072;6.678;2023-02-21T00:27:32;441.73;;;422.40;;
3000;SDS011;1510;51.072;6.678;2023-02-21T00:30:17;444.97;;;424.67;;
3000;SDS011;1510;51.072;6.678;2023-02-21T00:33:02;458.83;;;438.00;;
3000;SDS011;1510;51.072;6.678;2023-02-21T00:35:46;460.73;;;439.87;;
3000;SDS011;1510;51.072;6.678;2023-02-21T00:38:30;466.97;;;444.33;;
3000;SDS011;1510;51.072;6.678;2023-02-21T00:41:15;464.20;;;441.50;;
3000;SDS011;1510;51.072;6.678;2023-02-21T00:43:59;460.90;;;438.70;;
3000;SDS011;1510;51.072;6.678;2023-02-21T00:46:44;461.57;;;439.80;;
3000;SDS011;1510;51.072;6.678;2023-02-21T00:49:28;477.10;;;452.60;;
3000;SDS011;1510;51.072;6.678;2023-02-21T00:52:12;484.03;;;460.67;;
3000;SDS011;1510;51.072;6.678;2023-02-21T00:54:57;472.73;;;450.47;;
3000;SDS011;1510;51.072;6.678;2023-02-21T00:57:41;474.33;;;451.37;;
3000;SDS011;1510;51.072;6.678;2023-02-21T01:00:26;450.07;;;430.30;;
3000;SDS011;1510;51.072;6.678;2023-02-21T01:03:11;468.13;;;445.73;;
3000;SDS011;1510;51.072;6.678;2023-02-21T01:05:55;458.97;;;437.73;;
3000;SDS011;1510;51.072;6.678;2023-02-21T01:08:41;459.90;;;437.70;;
3000;SDS011;1510;51.072;6.678;2023-02-21T01:11:25;455.60;;;434.40;;
3000;SDS011;1510;51.072;6.678;2023-02-21T01:14:09;457.53;;;436.03;;
3000;SDS011;1510;51.072;6.678;2023-02-21T01:16:53;449.27;;;428.07;;
3000;SDS011;1510;51.072;6.678;2023-02-21T01:19:39;451.10;;;430.60;;
3000;SDS011;1510;51.072;6.678;2023-02-21T01:22:23;466.80;;;444.50;;
3000;SDS011;1510;51.072;6.678;2023-02-21T01:25:07;470.80;;;447.70;;
3000;SDS011;1510;51.072;6.678;2023-02-21T01:27:52;468.67;;;446.17;;
3000;SDS011;1510;51.072;6.678;2023-02-21T01:30:36;475.40;;;451.13;;
3000;SDS011;1510;51.072;6.678;2023-02-21T01:33:20;465.37;;;442.70;;
3000;SDS011;1510;51.072;6.678;2023-02-21T01:36:06;463.67;;;440.27;;
3000;SDS011;1510;51.072;6.678;2023-02-21T01:38:52;467.80;;;445.03;;
3000;SDS011;1510;51.072;6.678;2023-02-21T01:41:36;467.50;;;443.77;;
3000;SDS011;1510;51.072;6.678;2023-02-21T01:44:28;469.67;;;445.90;;
3000;SDS011;1510;51.072;6.678;2023-02-21T01:47:19;461.70;;;438.97;;
3000;SDS011;1510;51.072;6.678;2023-02-21T01:50:06;473.87;;;449.77;;
3000;SDS011;1510;51.072;6.678;2023-02-21T01:52:54;470.67;;;446.80;;
3000;SDS011;1510;51.072;6.678;2023-02-21T01:55:39;474.57;;;450.17;;
3000;SDS011;1510;51.072;6.678;2023-02-21T01:58:25;478.77;;;454.40;;
3000;SDS011;1510;51.072;6.678;2023-02-21T02:01:13;483.40;;;458.93;;
3000;SDS011;1510;51.072;6.678;2023-02-21T02:04:04;489.03;;;464.30;;
3000;SDS011;1510;51.072;6.678;2023-02-21T02:06:48;479.43;;;455.13;;
3000;SDS011;1510;51.072;6.678;2023-02-21T02:09:34;489.07;;;463.87;;
3000;SDS011;1510;51.072;6.678;2023-02-21T02:12:22;489.17;;;464.10;;
3000;SDS011;1510;51.072;6.678;2023-02-21T02:15:14;493.10;;;467.37;;
3000;SDS011;1510;51.072;6.678;2023-02-21T02:17:59;495.70;;;468.70;;
3000;SDS011;1510;51.072;6.678;2023-02-21T02:20:44;508.13;;;480.00;;
3000;SDS011;1510;51.072;6.678;2023-02-21T02:23:38;499.07;;;472.17;;
3000;SDS011;1510;51.072;6.678;2023-02-21T02:29:33;510.97;;;482.57;;
3000;SDS011;1510;51.072;6.678;2023-02-21T02:35:05;509.33;;;480.67;;
3000;SDS011;1510;51.072;6.678;2023-02-21T02:37:36;516.80;;;487.27;;
3000;SDS011;1510;51.072;6.678;2023-02-21T02:40:13;510.80;;;483.07;;
3000;SDS011;1510;51.072;6.678;2023-02-21T02:42:53;505.20;;;477.63;;
3000;SDS011;1510;51.072;6.678;2023-02-21T02:45:28;506.63;;;477.63;;
3000;SDS011;1510;51.072;6.678;2023-02-21T02:48:00;505.60;;;477.03;;
3000;SDS011;1510;51.072;6.678;2023-02-21T02:50:33;509.13;;;480.33;;
3000;SDS011;1510;51.072;6.678;2023-02-21T02:53:02;510.07;;;481.70;;
3000;SDS011;1510;51.072;6.678;2023-02-21T02:55:31;509.20;;;481.20;;
3000;SDS011;1510;51.072;6.678;2023-02-21T02:58:02;513.80;;;484.17;;
3000;SDS011;1510;51.072;6.678;2023-02-21T03:00:30;503.43;;;476.20;;
3000;SDS011;1510;51.072;6.678;2023-02-21T03:03:04;487.70;;;460.20;;
3000;SDS011;1510;51.072;6.678;2023-02-21T03:05:46;494.63;;;465.67;;
3000;SDS011;1510;51.072;6.678;2023-02-21T03:08:26;503.40;;;474.27;;
3000;SDS011;1510;51.072;6.678;2023-02-21T03:11:04;497.37;;;469.93;;
3000;SDS011;1510;51.072;6.678;2023-02-21T03:13:36;492.87;;;465.20;;
3000;SDS011;1510;51.072;6.678;2023-02-21T03:16:11;487.53;;;459.73;;
3000;SDS011;1510;51.072;6.678;2023-02-21T03:18:44;485.80;;;459.90;;
3000;SDS011;1510;51.072;6.678;2023-02-21T03:21:16;487.87;;;461.03;;
3000;SDS011;1510;51.072;6.678;2023-02-21T03:23:47;480.90;;;455.00;;
3000;SDS011;1510;51.072;6.678;2023-02-21T03:26:17;483.77;;;455.53;;
3000;SDS011;1510;51.072;6.678;2023-02-21T03:28:44;484.90;;;458.00;;
3000;SDS011;1510;51.072;6.678;2023-02-21T03:31:13;487.37;;;460.33;;
3000;SDS011;1510;51.072;6.678;2023-02-21T03:33:42;493.53;;;465.23;;
3000;SDS011;1510;51.072;6.678;2023-02-21T03:36:09;491.53;;;463.67;;
3000;SDS011;1510;51.072;6.678;2023-02-21T03:38:38;492.67;;;464.83;;
3000;SDS011;1510;51.072;6.678;2023-02-21T03:41:05;491.37;;;464.00;;
3000;SDS011;1510;51.072;6.678;2023-02-21T03:43:34;487.63;;;459.97;;
3000;SDS011;1510;51.072;6.678;2023-02-21T03:46:01;484.47;;;456.70;;
3000;SDS011;1510;51.072;6.678;2023-02-21T03:48:27;486.73;;;458.10;;
3000;SDS011;1510;51.072;6.678;2023-02-21T03:50:54;483.97;;;456.47;;
3000;SDS011;1510;51.072;6.678;2023-02-21T03:53:21;492.97;;;463.10;;
3000;SDS011;1510;51.072;6.678;2023-02-21T03:55:49;490.17;;;462.20;;
3000;SDS011;1510;51.072;6.678;2023-02-21T03:58:15;495.73;;;468.00;;
3000;SDS011;1510;51.072;6.678;2023-02-21T04:00:42;501.20;;;472.67;;
3000;SDS011;1510;51.072;6.678;2023-02-21T04:03:09;503.30;;;474.00;;
3000;SDS011;1510;51.072;6.678;2023-02-21T04:05:36;497.07;;;468.90;;
3000;SDS011;1510;51.072;6.678;2023-02-21T04:08:02;507.20;;;476.77;;
3000;SDS011;1510;51.072;6.678;2023-02-21T04:10:30;504.70;;;475.20;;
3000;SDS011;1510;51.072;6.678;2023-02-21T04:12:58;502.10;;;472.10;;
3000;SDS011;1510;51.072;6.678;2023-02-21T04:15:24;501.23;;;472.10;;
3000;SDS011;1510;51.072;6.678;2023-02-21T04:17:51;502.03;;;472.20;;
3000;SDS011;1510;51.072;6.678;2023-02-21T04:20:18;514.70;;;483.80;;
3000;SDS011;1510;51.072;6.678;2023-02-21T04:22:44;505.87;;;476.13;;
3000;SDS011;1510;51.072;6.678;2023-02-21T04:25:11;509.10;;;479.43;;
3000;SDS011;1510;51.072;6.678;2023-02-21T04:27:39;517.20;;;486.03;;
3000;SDS011;1510;51.072;6.678;2023-02-21T04:30:08;522.23;;;488.50;;
3000;SDS011;1510;51.072;6.678;2023-02-21T04:32:35;519.37;;;488.40;;
3000;SDS011;1510;51.072;6.678;2023-02-21T04:35:02;521.17;;;489.97;;
3000;SDS011;1510;51.072;6.678;2023-02-21T04:37:29;527.17;;;496.57;;
3000;SDS011;1510;51.072;6.678;2023-02-21T04:39:56;527.57;;;496.37;;
3000;SDS011;1510;51.072;6.678;2023-02-21T04:42:23;532.80;;;500.77;;
3000;SDS011;1510;51.072;6.678;2023-02-21T04:44:50;536.60;;;503.90;;
3000;SDS011;1510;51.072;6.678;2023-02-21T04:47:18;543.00;;;510.60;;
3000;SDS011;1510;51.072;6.678;2023-02-21T04:49:44;557.77;;;524.13;;
3000;SDS011;1510;51.072;6.678;2023-02-21T04:52:15;560.80;;;527.10;;
3000;SDS011;1510;51.072;6.678;2023-02-21T04:54:44;561.87;;;526.80;;
3000;SDS011;1510;51.072;6.678;2023-02-21T04:57:11;578.17;;;542.87;;
3000;SDS011;1510;51.072;6.678;2023-02-21T04:59:37;569.97;;;534.93;;
3000;SDS011;1510;51.072;6.678;2023-02-21T05:02:04;572.17;;;535.10;;
3000;SDS011;1510;51.072;6.678;2023-02-21T05:04:33;569.80;;;533.57;;
3000;SDS011;1510;51.072;6.678;2023-02-21T05:07:00;565.87;;;529.93;;
3000;SDS011;1510;51.072;6.678;2023-02-21T05:09:27;576.80;;;540.30;;
3000;SDS011;1510;51.072;6.678;2023-02-21T05:11:54;572.07;;;535.07;;
3000;SDS011;1510;51.072;6.678;2023-02-21T05:14:20;579.43;;;541.20;;
3000;SDS011;1510;51.072;6.678;2023-02-21T05:16:47;590.17;;;551.77;;
3000;SDS011;1510;51.072;6.678;2023-02-21T05:19:17;592.90;;;553.90;;
3000;SDS011;1510;51.072;6.678;2023-02-21T05:21:52;604.00;;;564.90;;
3000;SDS011;1510;51.072;6.678;2023-02-21T05:24:21;598.90;;;562.00;;
3000;SDS011;1510;51.072;6.678;2023-02-21T05:26:47;604.93;;;568.20;;
3000;SDS011;1510;51.072;6.678;2023-02-21T05:29:14;624.87;;;585.97;;
3000;SDS011;1510;51.072;6.678;2023-02-21T05:31:41;618.33;;;580.20;;
3000;SDS011;1510;51.072;6.678;2023-02-21T05:34:08;631.70;;;591.20;;
3000;SDS011;1510;51.072;6.678;2023-02-21T05:36:36;654.30;;;611.63;;
3000;SDS011;1510;51.072;6.678;2023-02-21T05:39:04;642.47;;;599.57;;
3000;SDS011;1510;51.072;6.678;2023-02-21T05:41:32;649.53;;;607.00;;
3000;SDS011;1510;51.072;6.678;2023-02-21T05:43:59;661.43;;;616.13;;
3000;SDS011;1510;51.072;6.678;2023-02-21T05:46:27;658.50;;;615.73;;
3000;SDS011;1510;51.072;6.678;2023-02-21T05:48:55;665.83;;;622.17;;
3000;SDS011;1510;51.072;6.678;2023-02-21T05:51:23;679.47;;;633.73;;
3000;SDS011;1510;51.072;6.678;2023-02-21T05:53:51;681.73;;;636.50;;
3000;SDS011;1510;51.072;6.678;2023-02-21T05:56:19;687.87;;;641.90;;
3000;SDS011;1510;51.072;6.678;2023-02-21T05:58:47;708.00;;;660.50;;
3000;SDS011;1510;51.072;6.678;2023-02-21T06:01:14;720.43;;;673.03;;
3000;SDS011;1510;51.072;6.678;2023-02-21T06:03:41;726.70;;;677.30;;
3000;SDS011;1510;51.072;6.678;2023-02-21T06:06:08;726.43;;;677.33;;
3000;SDS011;1510;51.072;6.678;2023-02-21T06:08:41;733.77;;;683.10;;
3000;SDS011;1510;51.072;6.678;2023-02-21T06:11:08;752.50;;;699.27;;
3000;SDS011;1510;51.072;6.678;2023-02-21T06:13:36;769.27;;;715.00;;
3000;SDS011;1510;51.072;6.678;2023-02-21T06:16:03;757.73;;;701.90;;
3000;SDS011;1510;51.072;6.678;2023-02-21T06:18:31;751.07;;;696.17;;
3000;SDS011;1510;51.072;6.678;2023-02-21T06:20:58;758.37;;;702.17;;
3000;SDS011;1510;51.072;6.678;2023-02-21T06:23:24;763.87;;;706.37;;
3000;SDS011;1510;51.072;6.678;2023-02-21T06:25:51;763.60;;;705.83;;
3000;SDS011;1510;51.072;6.678;2023-02-21T06:28:18;769.50;;;711.23;;
3000;SDS011;1510;51.072;6.678;2023-02-21T06:30:46;807.53;;;747.67;;
3000;SDS011;1510;51.072;6.678;2023-02-21T06:33:13;791.63;;;733.37;;
3000;SDS011;1510;51.072;6.678;2023-02-21T06:35:40;784.50;;;726.57;;
3000;SDS011;1510;51.072;6.678;2023-02-21T06:38:06;776.70;;;718.50;;
3000;SDS011;1510;51.072;6.678;2023-02-21T06:40:33;774.73;;;716.23;;
3000;SDS011;1510;51.072;6.678;2023-02-21T06:43:00;794.97;;;736.33;;
3000;SDS011;1510;51.072;6.678;2023-02-21T06:45:26;787.93;;;729.23;;
3000;SDS011;1510;51.072;6.678;2023-02-21T06:47:55;795.63;;;735.33;;
3000;SDS011;1510;51.072;6.678;2023-02-21T06:50:25;813.27;;;753.00;;
3000;SDS011;1510;51.072;6.678;2023-02-21T06:52:51;803.47;;;741.97;;
3000;SDS011;1510;51.072;6.678;2023-02-21T06:55:18;787.57;;;726.10;;
3000;SDS011;1510;51.072;6.678;2023-02-21T06:57:46;798.93;;;734.63;;
3000;SDS011;1510;51.072;6.678;2023-02-21T07:00:13;800.33;;;737.57;;
3000;SDS011;1510;51.072;6.678;2023-02-21T07:02:41;804.27;;;740.80;;
3000;SDS011;1510;51.072;6.678;2023-02-21T07:05:09;804.00;;;740.20;;
3000;SDS011;1510;51.072;6.678;2023-02-21T07:07:37;791.67;;;728.60;;
3000;SDS011;1510;51.072;6.678;2023-02-21T07:10:04;801.93;;;738.03;;
3000;SDS011;1510;51.072;6.678;2023-02-21T07:12:31;806.70;;;742.97;;
3000;SDS011;1510;51.072;6.678;2023-02-21T07:14:57;806.77;;;740.90;;
3000;SDS011;1510;51.072;6.678;2023-02-21T07:17:24;808.33;;;743.83;;
3000;SDS011;1510;51.072;6.678;2023-02-21T07:19:51;810.27;;;746.73;;
3000;SDS011;1510;51.072;6.678;2023-02-21T07:22:19;807.97;;;742.60;;
3000;SDS011;1510;51.072;6.678;2023-02-21T07:24:50;815.13;;;751.67;;
3000;SDS011;1510;51.072;6.678;2023-02-21T07:27:17;814.13;;;750.50;;
3000;SDS011;1510;51.072;6.678;2023-02-21T07:29:45;803.20;;;740.97;;
3000;SDS011;1510;51.072;6.678;2023-02-21T07:32:12;817.70;;;754.40;;
3000;SDS011;1510;51.072;6.678;2023-02-21T07:34:40;820.83;;;758.83;;
3000;SDS011;1510;51.072;6.678;2023-02-21T07:37:10;782.70;;;721.47;;
3000;SDS011;1510;51.072;6.678;2023-02-21T07:39:39;780.70;;;721.13;;
3000;SDS011;1510;51.072;6.678;2023-02-21T07:42:06;793.07;;;732.20;;
3000;SDS011;1510;51.072;6.678;2023-02-21T07:44:33;771.93;;;714.27;;
3000;SDS011;1510;51.072;6.678;2023-02-21T07:47:00;770.27;;;712.17;;
3000;SDS011;1510;51.072;6.678;2023-02-21T07:49:27;773.93;;;715.37;;
3000;SDS011;1510;51.072;6.678;2023-02-21T07:51:53;778.17;;;720.53;;
3000;SDS011;1510;51.072;6.678;2023-02-21T07:54:20;769.03;;;711.07;;
3000;SDS011;1510;51.072;6.678;2023-02-21T07:56:48;777.50;;;718.00;;
3000;SDS011;1510;51.072;6.678;2023-02-21T07:59:16;778.07;;;719.37;;
3000;SDS011;1510;51.072;6.678;2023-02-21T08:01:43;780.23;;;721.47;;
3000;SDS011;1510;51.072;6.678;2023-02-21T08:04:13;781.80;;;723.30;;
3000;SDS011;1510;51.072;6.678;2023-02-21T08:06:44;778.87;;;720.50;;
3000;SDS011;1510;51.072;6.678;2023-02-21T08:09:11;788.73;;;730.17;;
3000;SDS011;1510;51.072;6.678;2023-02-21T08:11:38;795.57;;;736.97;;
3000;SDS011;1510;51.072;6.678;2023-02-21T08:14:07;792.03;;;733.13;;
3000;SDS011;1510;51.072;6.678;2023-02-21T08:16:34;773.50;;;717.40;;
3000;SDS011;1510;51.072;6.678;2023-02-21T08:19:01;759.27;;;703.03;;
3000;SDS011;1510;51.072;6.678;2023-02-21T08:21:29;762.53;;;706.03;;
3000;SDS011;1510;51.072;6.678;2023-02-21T08:23:56;755.03;;;698.97;;
3000;SDS011;1510;51.072;6.678;2023-02-21T08:26:24;740.73;;;685.30;;
3000;SDS011;1510;51.072;6.678;2023-02-21T08:29:25;734.07;;;678.63;;
3000;SDS011;1510;51.072;6.678;2023-02-21T08:31:46;726.13;;;672.23;;
3000;SDS011;1510;51.072;6.678;2023-02-21T08:34:15;736.03;;;681.40;;
3000;SDS011;1510;51.072;6.678;2023-02-21T08:36:50;743.37;;;687.33;;
3000;SDS011;1510;51.072;6.678;2023-02-21T08:39:17;745.10;;;689.10;;
3000;SDS011;1510;51.072;6.678;2023-02-21T08:41:44;746.63;;;690.50;;
3000;SDS011;1510;51.072;6.678;2023-02-21T08:44:13;737.40;;;681.80;;
3000;SDS011;1510;51.072;6.678;2023-02-21T08:46:42;737.37;;;682.03;;
3000;SDS011;1510;51.072;6.678;2023-02-21T08:49:09;743.93;;;687.80;;
3000;SDS011;1510;51.072;6.678;2023-02-21T08:51:36;746.90;;;692.53;;
3000;SDS011;1510;51.072;6.678;2023-02-21T08:54:04;756.57;;;700.77;;
3000;SDS011;1510;51.072;6.678;2023-02-21T08:56:31;746.43;;;691.13;;
3000;SDS011;1510;51.072;6.678;2023-02-21T08:58:59;744.03;;;686.97;;
3000;SDS011;1510;51.072;6.678;2023-02-21T09:01:29;716.83;;;663.70;;
3000;SDS011;1510;51.072;6.678;2023-02-21T09:03:58;714.63;;;660.73;;
3000;SDS011;1510;51.072;6.678;2023-02-21T09:06:25;708.80;;;656.20;;
3000;SDS011;1510;51.072;6.678;2023-02-21T09:08:52;698.67;;;646.30;;
3000;SDS011;1510;51.072;6.678;2023-02-21T09:11:19;698.03;;;646.30;;
3000;SDS011;1510;51.072;6.678;2023-02-21T09:13:46;676.80;;;629.27;;
3000;SDS011;1510;51.072;6.678;2023-02-21T09:16:13;667.93;;;620.57;;
3000;SDS011;1510;51.072;6.678;2023-02-21T09:18:39;659.83;;;612.30;;
3000;SDS011;1510;51.072;6.678;2023-02-21T09:21:07;650.70;;;605.10;;
3000;SDS011;1510;51.072;6.678;2023-02-21T09:23:34;634.40;;;591.37;;
3000;SDS011;1510;51.072;6.678;2023-02-21T09:26:01;629.37;;;587.33;;
3000;SDS011;1510;51.072;6.678;2023-02-21T09:28:27;609.60;;;569.10;;
3000;SDS011;1510;51.072;6.678;2023-02-21T09:30:55;603.93;;;565.20;;
3000;SDS011;1510;51.072;6.678;2023-02-21T09:33:22;588.87;;;550.70;;
3000;SDS011;1510;51.072;6.678;2023-02-21T09:35:49;570.00;;;535.10;;
3000;SDS011;1510;51.072;6.678;2023-02-21T09:38:17;537.73;;;504.80;;
3000;SDS011;1510;51.072;6.678;2023-02-21T09:40:44;520.07;;;487.83;;
3000;SDS011;1510;51.072;6.678;2023-02-21T09:43:14;477.83;;;450.60;;
3000;SDS011;1510;51.072;6.678;2023-02-21T09:45:44;447.63;;;421.73;;
3000;SDS011;1510;51.072;6.678;2023-02-21T09:48:12;426.00;;;402.53;;
3000;SDS011;1510;51.072;6.678;2023-02-21T09:50:43;412.23;;;388.57;;
3000;SDS011;1510;51.072;6.678;2023-02-21T09:53:13;373.90;;;352.83;;
3000;SDS011;1510;51.072;6.678;2023-02-21T09:55:45;351.93;;;333.23;;
3000;SDS011;1510;51.072;6.678;2023-02-21T09:58:14;329.47;;;312.10;;
3000;SDS011;1510;51.072;6.678;2023-02-21T10:00:45;306.43;;;290.53;;
3000;SDS011;1510;51.072;6.678;2023-02-21T10:03:19;276.43;;;261.27;;
3000;SDS011;1510;51.072;6.678;2023-02-21T10:05:57;257.90;;;245.30;;
3000;SDS011;1510;51.072;6.678;2023-02-21T10:08:32;230.23;;;218.57;;
3000;SDS011;1510;51.072;6.678;2023-02-21T10:11:06;211.23;;;200.73;;
3000;SDS011;1510;51.072;6.678;2023-02-21T10:13:49;213.67;;;203.00;;
3000;SDS011;1510;51.072;6.678;2023-02-21T10:16:23;190.40;;;180.33;;
3000;SDS011;1510;51.072;6.678;2023-02-21T10:18:55;173.97;;;164.63;;
3000;SDS011;1510;51.072;6.678;2023-02-21T10:21:31;166.10;;;156.70;;
3000;SDS011;1510;51.072;6.678;2023-02-21T10:24:02;129.80;;;122.53;;
3000;SDS011;1510;51.072;6.678;2023-02-21T10:26:37;123.43;;;115.37;;
3000;SDS011;1510;51.072;6.678;2023-02-21T10:29:07;105.20;;;99.00;;
3000;SDS011;1510;51.072;6.678;2023-02-21T10:31:41;70.53;;;64.20;;
3000;SDS011;1510;51.072;6.678;2023-02-21T10:34:15;88.67;;;82.47;;
3000;SDS011;1510;51.072;6.678;2023-02-21T10:36:48;84.23;;;78.03;;
3000;SDS011;1510;51.072;6.678;2023-02-21T10:39:18;63.70;;;57.87;;
3000;SDS011;1510;51.072;6.678;2023-02-21T10:41:47;42.30;;;38.07;;
3000;SDS011;1510;51.072;6.678;2023-02-21T10:44:17;37.80;;;28.93;;
3000;SDS011;1510;51.072;6.678;2023-02-21T10:46:48;40.47;;;28.23;;
3000;SDS011;1510;51.072;6.678;2023-02-21T10:49:22;36.13;;;25.43;;
3000;SDS011;1510;51.072;6.678;2023-02-21T10:52:02;30.03;;;25.20;;
3000;SDS011;1510;51.072;6.678;2023-02-21T10:54:32;33.77;;;25.00;;
3000;SDS011;1510;51.072;6.678;2023-02-21T10:56:59;34.23;;;21.30;;
3000;SDS011;1510;51.072;6.678;2023-02-21T10:59:28;27.37;;;19.10;;
3000;SDS011;1510;51.072;6.678;2023-02-21T11:01:57;36.10;;;20.23;;
3000;SDS011;1510;51.072;6.678;2023-02-21T11:04:25;33.93;;;20.37;;
3000;SDS011;1510;51.072;6.678;2023-02-21T11:06:56;36.10;;;17.20;;
3000;SDS011;1510;51.072;6.678;2023-02-21T11:09:30;35.50;;;17.90;;
3000;SDS011;1510;51.072;6.678;2023-02-21T11:12:02;31.23;;;18.23;;
3000;SDS011;1510;51.072;6.678;2023-02-21T11:14:32;33.30;;;17.33;;
3000;SDS011;1510;51.072;6.678;2023-02-21T11:17:03;32.53;;;17.70;;
3000;SDS011;1510;51.072;6.678;2023-02-21T11:19:40;37.90;;;20.23;;
3000;SDS011;1510;51.072;6.678;2023-02-21T11:22:12;36.10;;;22.37;;
3000;SDS011;1510;51.072;6.678;2023-02-21T11:24:45;35.37;;;22.30;;
3000;SDS011;1510;51.072;6.678;2023-02-21T11:27:17;26.63;;;21.60;;
3000;SDS011;1510;51.072;6.678;2023-02-21T11:29:45;32.87;;;21.80;;
3000;SDS011;1510;51.072;6.678;2023-02-21T11:32:18;30.80;;;21.50;;
3000;SDS011;1510;51.072;6.678;2023-02-21T11:34:49;29.13;;;20.00;;
3000;SDS011;1510;51.072;6.678;2023-02-21T11:37:16;29.00;;;17.07;;
3000;SDS011;1510;51.072;6.678;2023-02-21T11:39:50;34.10;;;20.83;;
3000;SDS011;1510;51.072;6.678;2023-02-21T11:42:23;33.13;;;19.13;;
3000;SDS011;1510;51.072;6.678;2023-02-21T11:45:03;26.90;;;16.20;;
3000;SDS011;1510;51.072;6.678;2023-02-21T11:47:38;26.20;;;14.27;;
3000;SDS011;1510;51.072;6.678;2023-02-21T11:50:12;29.00;;;13.93;;
3000;SDS011;1510;51.072;6.678;2023-02-21T11:52:45;31.47;;;14.67;;
3000;SDS011;1510;51.072;6.678;2023-02-21T11:55:17;24.90;;;13.03;;
3000;SDS011;1510;51.072;6.678;2023-02-21T11:57:48;27.60;;;13.53;;
3000;SDS011;1510;51.072;6.678;2023-02-21T12:00:23;27.57;;;14.40;;
3000;SDS011;1510;51.072;6.678;2023-02-21T12:02:58;23.20;;;13.37;;
3000;SDS011;1510;51.072;6.678;2023-02-21T12:05:37;26.10;;;12.63;;
3000;SDS011;1510;51.072;6.678;2023-02-21T12:08:17;31.83;;;14.40;;
3000;SDS011;1510;51.072;6.678;2023-02-21T12:10:57;25.57;;;13.03;;
3000;SDS011;1510;51.072;6.678;2023-02-21T12:13:29;28.47;;;13.03;;
3000;SDS011;1510;51.072;6.678;2023-02-21T12:16:07;29.27;;;14.03;;
3000;SDS011;1510;51.072;6.678;2023-02-21T12:18:42;28.57;;;16.97;;
3000;SDS011;1510;51.072;6.678;2023-02-21T12:24:19;30.93;;;14.33;;
3000;SDS011;1510;51.072;6.678;2023-02-21T12:26:55;29.07;;;14.53;;
3000;SDS011;1510;51.072;6.678;2023-02-21T12:29:33;23.83;;;13.10;;
3000;SDS011;1510;51.072;6.678;2023-02-21T12:32:15;29.33;;;13.10;;
3000;SDS011;1510;51.072;6.678;2023-02-21T12:34:54;26.83;;;13.80;;
3000;SDS011;1510;51.072;6.678;2023-02-21T12:37:35;32.80;;;15.70;;
3000;SDS011;1510;51.072;6.678;2023-02-21T12:40:10;32.03;;;14.77;;
3000;SDS011;1510;51.072;6.678;2023-02-21T12:42:49;28.20;;;13.67;;
3000;SDS011;1510;51.072;6.678;2023-02-21T12:45:30;27.77;;;14.63;;
3000;SDS011;1510;51.072;6.678;2023-02-21T12:48:11;27.23;;;13.77;;
3000;SDS011;1510;51.072;6.678;2023-02-21T12:50:45;25.47;;;13.10;;
3000;SDS011;1510;51.072;6.678;2023-02-21T12:53:16;30.23;;;14.47;;
3000;SDS011;1510;51.072;6.678;2023-02-21T12:55:49;24.40;;;12.63;;
3000;SDS011;1510;51.072;6.678;2023-02-21T12:58:22;38.60;;;15.97;;
3000;SDS011;1510;51.072;6.678;2023-02-21T13:00:56;35.53;;;15.50;;
3000;SDS011;1510;51.072;6.678;2023-02-21T13:03:30;29.93;;;14.57;;
3000;SDS011;1510;51.072;6.678;2023-02-21T13:06:03;30.10;;;13.63;;
3000;SDS011;1510;51.072;6.678;2023-02-21T13:08:35;29.90;;;14.70;;
3000;SDS011;1510;51.072;6.678;2023-02-21T13:11:12;37.50;;;15.60;;
3000;SDS011;1510;51.072;6.678;2023-02-21T13:13:44;37.00;;;16.43;;
3000;SDS011;1510;51.072;6.678;2023-02-21T13:16:11;31.63;;;15.80;;
3000;SDS011;1510;51.072;6.678;2023-02-21T13:18:40;35.43;;;16.60;;
3000;SDS011;1510;51.072;6.678;2023-02-21T13:21:13;30.57;;;16.23;;
3000;SDS011;1510;51.072;6.678;2023-02-21T13:27:04;34.07;;;14.87;;
3000;SDS011;1510;51.072;6.678;2023-02-21T13:29:45;27.93;;;13.40;;
3000;SDS011;1510;51.072;6.678;2023-02-21T13:32:14;33.20;;;15.50;;
3000;SDS011;1510;51.072;6.678;2023-02-21T13:34:44;34.40;;;15.57;;
3000;SDS011;1510;51.072;6.678;2023-02-21T13:37:15;32.63;;;15.47;;
3000;SDS011;1510;51.072;6.678;2023-02-21T13:39:48;34.00;;;17.15;;
3000;SDS011;1510;51.072;6.678;2023-02-21T13:42:17;36.60;;;16.50;;
3000;SDS011;1510;51.072;6.678;2023-02-21T13:44:47;28.90;;;14.20;;
3000;SDS011;1510;51.072;6.678;2023-02-21T13:47:16;30.33;;;17.43;;
3000;SDS011;1510;51.072;6.678;2023-02-21T13:49:45;30.93;;;16.00;;
3000;SDS011;1510;51.072;6.678;2023-02-21T13:52:26;34.73;;;16.53;;
3000;SDS011;1510;51.072;6.678;2023-02-21T14:01:22;43.67;;;18.90;;
3000;SDS011;1510;51.072;6.678;2023-02-21T14:07:42;39.00;;;20.63;;
3000;SDS011;1510;51.072;6.678;2023-02-21T14:10:31;41.87;;;20.10;;
3000;SDS011;1510;51.072;6.678;2023-02-21T14:13:17;41.10;;;19.80;;
3000;SDS011;1510;51.072;6.678;2023-02-21T14:15:49;45.97;;;21.43;;
3000;SDS011;1510;51.072;6.678;2023-02-21T14:18:25;52.07;;;22.40;;
3000;SDS011;1510;51.072;6.678;2023-02-21T14:20:55;45.60;;;22.90;;
3000;SDS011;1510;51.072;6.678;2023-02-21T14:23:24;42.30;;;22.60;;
3000;SDS011;1510;51.072;6.678;2023-02-21T14:26:01;43.10;;;24.27;;
3000;SDS011;1510;51.072;6.678;2023-02-21T14:28:58;49.07;;;25.17;;
3000;SDS011;1510;51.072;6.678;2023-02-21T14:31:45;47.87;;;23.13;;
3000;SDS011;1510;51.072;6.678;2023-02-21T14:34:16;49.27;;;23.37;;
3000;SDS011;1510;51.072;6.678;2023-02-21T14:36:47;40.43;;;20.03;;
3000;SDS011;1510;51.072;6.678;2023-02-21T14:39:16;44.07;;;20.10;;
3000;SDS011;1510;51.072;6.678;2023-02-21T14:41:49;43.50;;;21.87;;
3000;SDS011;1510;51.072;6.678;2023-02-21T14:44:26;49.30;;;23.17;;
3000;SDS011;1510;51.072;6.678;2023-02-21T14:47:06;48.10;;;22.47;;
3000;SDS011;1510;51.072;6.678;2023-02-21T14:53:00;50.07;;;20.80;;
3000;SDS011;1510;51.072;6.678;2023-02-21T14:56:00;42.83;;;20.30;;
3000;SDS011;1510;51.072;6.678;2023-02-21T14:58:53;37.80;;;19.40;;
3000;SDS011;1510;51.072;6.678;2023-02-21T15:01:40;37.23;;;19.23;;
3000;SDS011;1510;51.072;6.678;2023-02-21T15:04:14;41.90;;;19.13;;
3000;SDS011;1510;51.072;6.678;2023-02-21T15:06:52;43.80;;;20.57;;
3000;SDS011;1510;51.072;6.678;2023-02-21T15:09:25;41.27;;;17.87;;
3000;SDS011;1510;51.072;6.678;2023-02-21T15:11:52;39.80;;;20.20;;
3000;SDS011;1510;51.072;6.678;2023-02-21T15:14:21;32.63;;;17.93;;
3000;SDS011;1510;51.072;6.678;2023-02-21T15:16:51;38.30;;;19.73;;
3000;SDS011;1510;51.072;6.678;2023-02-21T15:19:23;46.27;;;21.53;;
3000;SDS011;1510;51.072;6.678;2023-02-21T15:24:59;45.13;;;20.10;;
3000;SDS011;1510;51.072;6.678;2023-02-21T15:27:50;53.57;;;22.30;;
3000;SDS011;1510;51.072;6.678;2023-02-21T15:30:20;51.40;;;23.53;;